Karlovy Vary, Czech Republic
Current Conditions -  °F | °C
As of 9:00 PM on Saturday 25 Oct 2014 (Local Time) from LKKV Reporting Station
Broken Clouds Broken Clouds  
Wind Chill: 45°   Ceiling: 800
Heat Index: 45°   Visibility: 4mi
Dew Point: 43°   Wind: 2mph
Humidity: 93%   Direction: 290°WNW
Pressure: 30.21"   Gusts: NA
Location:  50.24°N, 12.87°E
Report Text: LKKV 251900Z 29002KT 7000 SCT005 BKN008 07/06 Q1023
Loading
Personal Weather Stations






























Interactive Weather Map
Tropical Storm Tracking
New forecast layout! Learn more

10-Day Weather Forecast

Advertisements
Track Severe Weather on mobile